createdAt,value
2022-11-06T00:01:11.258Z,100665.34
2022-11-06T00:03:38.055Z,100670.75
2022-11-06T00:06:09.018Z,100660.50
2022-11-06T00:08:38.399Z,100659.69
2022-11-06T00:11:16.027Z,100659.16
2022-11-06T00:13:43.198Z,100650.22
2022-11-06T00:16:11.528Z,100642.94
2022-11-06T00:18:39.444Z,100646.72
2022-11-06T00:21:07.970Z,100638.59
2022-11-06T00:23:34.500Z,100628.28
2022-11-06T00:26:00.912Z,100627.50
2022-11-06T00:28:27.236Z,100624.53
2022-11-06T00:31:10.760Z,100628.09
2022-11-06T00:33:37.911Z,100621.28
2022-11-06T00:36:07.080Z,100609.69
2022-11-06T00:38:34.073Z,100615.06
2022-11-06T00:41:09.653Z,100611.78
2022-11-06T00:43:36.779Z,100617.78
2022-11-06T00:46:11.890Z,100622.06
2022-11-06T00:48:39.527Z,100626.63
2022-11-06T00:51:11.875Z,100632.56
2022-11-06T00:53:38.454Z,100636.41
2022-11-06T00:56:13.384Z,100642.38
2022-11-06T00:58:40.160Z,100638.28
2022-11-06T01:01:20.230Z,100644.75
2022-11-06T01:03:48.586Z,100634.25
2022-11-06T01:06:22.185Z,100637.75
2022-11-06T01:08:49.681Z,100639.97
2022-11-06T01:11:19.447Z,100636.69
2022-11-06T01:13:48.425Z,100640.50
2022-11-06T01:16:15.888Z,100638.91
2022-11-06T01:18:44.016Z,100647.59
2022-11-06T01:21:13.101Z,100639.22
2022-11-06T01:23:40.171Z,100630.00
2022-11-06T01:26:08.682Z,100629.22
2022-11-06T01:28:35.457Z,100629.16
2022-11-06T01:31:03.961Z,100623.75
2022-11-06T01:33:30.573Z,100624.59
2022-11-06T01:35:56.982Z,100623.75
2022-11-06T01:38:23.615Z,100624.53
2022-11-06T01:40:49.965Z,100611.31
2022-11-06T01:43:23.531Z,100611.84
2022-11-06T01:45:52.552Z,100610.47
2022-11-06T01:48:27.851Z,100611.34
2022-11-06T01:50:57.938Z,100604.09
2022-11-06T01:53:25.592Z,100605.13
2022-11-06T01:55:55.860Z,100609.19
2022-11-06T01:58:25.152Z,100605.13
2022-11-06T02:00:51.571Z,100606.47
2022-11-06T02:03:18.785Z,100606.47
2022-11-06T02:05:45.857Z,100592.94
2022-11-06T02:08:14.554Z,100591.13
2022-11-06T02:10:42.399Z,100587.56
2022-11-06T02:13:17.846Z,100584.31
2022-11-06T02:15:54.316Z,100581.91
2022-11-06T02:18:50.674Z,100584.38
2022-11-06T02:22:10.837Z,100574.91
2022-11-06T02:24:52.393Z,100578.66
2022-11-06T02:27:22.663Z,100577.31
2022-11-06T02:30:04.009Z,100567.59
2022-11-06T02:32:30.316Z,100564.91
2022-11-06T02:35:01.199Z,100563.25
2022-11-06T02:37:32.318Z,100554.63
2022-11-06T02:40:01.600Z,100542.16
2022-11-06T02:42:30.454Z,100541.59
2022-11-06T02:44:58.316Z,100542.13
2022-11-06T02:47:28.531Z,100538.41
2022-11-06T02:50:01.268Z,100545.16
2022-11-06T02:52:34.144Z,100545.44
2022-11-06T02:55:13.334Z,100546.84
2022-11-06T02:57:46.514Z,100546.53
2022-11-06T03:00:15.713Z,100543.31
2022-11-06T03:02:53.012Z,100547.63
2022-11-06T03:05:31.823Z,100545.22
2022-11-06T03:08:24.979Z,100543.09
2022-11-06T03:11:14.921Z,100546.59
2022-11-06T03:14:09.254Z,100542.31
2022-11-06T03:16:56.401Z,100537.16
2022-11-06T03:19:37.752Z,100539.06
2022-11-06T03:22:20.948Z,100536.38
2022-11-06T03:25:02.511Z,100536.38
2022-11-06T03:27:36.742Z,100532.84
2022-11-06T03:30:08.862Z,100522.34
2022-11-06T03:33:01.108Z,100522.63
2022-11-06T03:35:51.312Z,100509.38
2022-11-06T03:38:26.840Z,100515.63
2022-11-06T03:40:59.482Z,100520.19
2022-11-06T03:43:31.740Z,100509.66
2022-11-06T03:46:01.631Z,100519.94
2022-11-06T03:48:36.505Z,100521.28
2022-11-06T03:51:08.292Z,100527.78
2022-11-06T03:53:51.998Z,100531.53
2022-11-06T03:56:33.450Z,100525.06
2022-11-06T03:59:03.188Z,100530.72
2022-11-06T04:01:35.457Z,100528.56
2022-11-06T04:04:06.860Z,100529.91
2022-11-06T04:06:40.676Z,100538.03
2022-11-06T04:09:10.452Z,100536.13
2022-11-06T04:11:40.039Z,100541.78
2022-11-06T04:14:08.955Z,100535.31
2022-11-06T04:16:39.569Z,100546.66
2022-11-06T04:19:13.742Z,100536.13
2022-11-06T04:22:07.756Z,100535.03
2022-11-06T04:24:41.968Z,100528.25
2022-11-06T04:27:27.263Z,100522.28
2022-11-06T04:30:19.895Z,100526.09
2022-11-06T04:33:10.155Z,100518.53
2022-11-06T04:35:54.462Z,100517.47
2022-11-06T04:38:47.062Z,100530.69
2022-11-06T04:41:40.887Z,100515.25
2022-11-06T04:44:17.243Z,100520.13
2022-11-06T04:46:49.556Z,100508.47
2022-11-06T04:49:17.295Z,100504.47
2022-11-06T04:51:46.185Z,100502.81
2022-11-06T04:54:13.855Z,100508.75
2022-11-06T04:56:45.747Z,100510.94
2022-11-06T04:59:16.334Z,100511.22
2022-11-06T05:01:42.765Z,100509.31
2022-11-06T05:04:10.656Z,100506.41
2022-11-06T05:06:36.985Z,100503.47
2022-11-06T05:09:03.786Z,100511.28
2022-11-06T05:11:30.178Z,100509.38
2022-11-06T05:13:56.513Z,100509.97
2022-11-06T05:16:22.823Z,100511.31
2022-11-06T05:18:49.157Z,100505.66
2022-11-06T05:21:15.757Z,100508.59
2022-11-06T05:23:42.104Z,100502.94
2022-11-06T05:26:08.711Z,100498.63
2022-11-06T05:28:35.046Z,100505.06
2022-11-06T05:31:01.369Z,100501.81
2022-11-06T05:33:27.691Z,100502.91
2022-11-06T05:35:54.087Z,100488.31
2022-11-06T05:38:20.574Z,100491.31
2022-11-06T05:40:46.881Z,100479.16
2022-11-06T05:43:13.291Z,100476.75
2022-11-06T05:45:39.656Z,100481.34
2022-11-06T05:48:06.309Z,100477.56
2022-11-06T05:50:32.601Z,100470.03
2022-11-06T05:53:00.229Z,100475.94
2022-11-06T05:55:26.527Z,100471.09
2022-11-06T05:57:52.820Z,100467.88
2022-11-06T06:00:19.169Z,100472.47
2022-11-06T06:02:45.623Z,100471.13
2022-11-06T06:05:12.126Z,100468.44
2022-11-06T06:07:38.452Z,100468.94
2022-11-06T06:10:05.285Z,100466.53
2022-11-06T06:12:31.600Z,100461.41
2022-11-06T06:14:57.896Z,100464.91
2022-11-06T06:17:24.213Z,100456.50
2022-11-06T06:19:50.538Z,100456.00
2022-11-06T06:22:16.869Z,100451.94
2022-11-06T06:24:43.392Z,100463.81
2022-11-06T06:27:10.070Z,100461.41
2022-11-06T06:29:36.382Z,100461.38
2022-11-06T06:32:03.902Z,100456.25
2022-11-06T06:34:30.246Z,100465.97
2022-11-06T06:36:56.645Z,100468.91
2022-11-06T06:39:22.939Z,100466.50
2022-11-06T06:41:49.620Z,100468.94
2022-11-06T06:44:16.127Z,100461.13
2022-11-06T06:46:42.680Z,100472.69
2022-11-06T06:49:09.027Z,100471.06
2022-11-06T06:51:35.357Z,100470.53
2022-11-06T06:54:01.680Z,100472.13
2022-11-06T06:56:28.019Z,100465.66
2022-11-06T06:58:54.363Z,100466.72
2022-11-06T07:01:21.341Z,100469.66
2022-11-06T07:03:48.030Z,100464.25
2022-11-06T07:06:14.346Z,100456.94
2022-11-06T07:08:40.729Z,100456.97
2022-11-06T07:11:08.930Z,100458.56
2022-11-06T07:13:36.645Z,100455.06
2022-11-06T07:16:08.520Z,100449.34
2022-11-06T07:18:36.217Z,100453.72
2022-11-06T07:21:10.819Z,100458.25
2022-11-06T07:23:37.754Z,100458.00
2022-11-06T07:26:05.445Z,100448.78
2022-11-06T07:28:32.686Z,100449.88
2022-11-06T07:31:00.705Z,100452.81
2022-11-06T07:33:27.277Z,100451.72
2022-11-06T07:35:53.615Z,100453.28
2022-11-06T07:38:19.924Z,100448.19
2022-11-06T07:40:46.257Z,100446.28
2022-11-06T07:43:12.958Z,100453.28
2022-11-06T07:45:39.806Z,100451.88
2022-11-06T07:48:06.668Z,100444.28
2022-11-06T07:50:33.199Z,100445.03
2022-11-06T07:53:02.031Z,100453.69
2022-11-06T07:55:28.324Z,100446.59
2022-11-06T07:57:54.626Z,100447.41
2022-11-06T08:00:21.111Z,100449.44
2022-11-06T08:02:53.529Z,100440.13
2022-11-06T08:05:20.205Z,100441.69
2022-11-06T08:07:46.541Z,100449.00
2022-11-06T08:10:12.870Z,100444.66
2022-11-06T08:12:39.186Z,100440.94
2022-11-06T08:15:05.964Z,100437.94
2022-11-06T08:17:32.284Z,100434.03
2022-11-06T08:19:58.591Z,100428.53
2022-11-06T08:22:24.897Z,100436.81
2022-11-06T08:24:51.238Z,100435.34
2022-11-06T08:27:17.544Z,100439.13
2022-11-06T08:29:43.898Z,100437.50
2022-11-06T08:32:10.216Z,100442.41
2022-11-06T08:34:36.541Z,100434.28
2022-11-06T08:37:02.965Z,100447.75
2022-11-06T08:39:30.012Z,100442.41
2022-11-06T08:41:56.342Z,100439.63
2022-11-06T08:44:24.244Z,100435.25
2022-11-06T08:46:52.113Z,100438.72
2022-11-06T08:49:18.814Z,100430.28
2022-11-06T08:51:45.119Z,100416.19
2022-11-06T08:54:11.539Z,100415.31
2022-11-06T08:56:38.013Z,100408.97
2022-11-06T08:59:04.345Z,100409.84
2022-11-06T09:01:30.928Z,100403.38
2022-11-06T09:03:57.495Z,100408.97
2022-11-06T09:06:23.840Z,100398.72
2022-11-06T09:08:50.169Z,100388.97
2022-11-06T09:11:16.579Z,100388.59
2022-11-06T09:13:42.885Z,100390.75
2022-11-06T09:16:15.316Z,100386.00
2022-11-06T09:18:42.573Z,100386.03
2022-11-06T09:21:08.925Z,100384.50
2022-11-06T09:23:35.257Z,100375.50
2022-11-06T09:26:01.691Z,100372.47
2022-11-06T09:28:28.052Z,100372.88
2022-11-06T09:30:54.366Z,100382.59
2022-11-06T09:33:21.041Z,100372.75
2022-11-06T09:35:47.561Z,100371.47
2022-11-06T09:38:14.241Z,100371.88
2022-11-06T09:40:54.329Z,100371.50
2022-11-06T09:44:03.123Z,100371.44
2022-11-06T09:46:27.739Z,100370.75
2022-11-06T09:49:12.225Z,100372.88
2022-11-06T09:51:44.268Z,100366.91
2022-11-06T09:54:25.775Z,100373.28
2022-11-06T09:57:00.689Z,100370.38
2022-11-06T09:59:27.055Z,100366.06
2022-11-06T10:01:59.494Z,100361.44
2022-11-06T10:04:49.501Z,100357.72
2022-11-06T10:07:28.141Z,100351.66
2022-11-06T10:09:54.784Z,100354.78
2022-11-06T10:12:58.540Z,100349.53
2022-11-06T10:15:32.281Z,100345.28
2022-11-06T10:18:13.615Z,100349.03
2022-11-06T10:20:52.762Z,100345.84
2022-11-06T10:23:39.132Z,100346.19
2022-11-06T10:26:20.106Z,100333.50
2022-11-06T10:28:58.385Z,100328.72
2022-11-06T10:31:56.953Z,100323.28
2022-11-06T10:34:39.742Z,100309.38
2022-11-06T10:37:13.494Z,100303.31
2022-11-06T10:39:40.277Z,100299.13
2022-11-06T10:42:15.752Z,100301.13
2022-11-06T10:45:14.189Z,100300.03
2022-11-06T10:47:46.943Z,100287.53
2022-11-06T10:50:15.847Z,100290.56
2022-11-06T10:52:54.369Z,100282.94
2022-11-06T10:55:41.608Z,100281.31
2022-11-06T10:58:18.345Z,100290.56
2022-11-06T11:00:45.051Z,100277.44
2022-11-06T11:03:30.046Z,100274.28
2022-11-06T11:05:56.596Z,100272.19
2022-11-06T11:08:28.628Z,100263.81
2022-11-06T11:11:21.620Z,100272.41
2022-11-06T11:14:14.974Z,100268.63
2022-11-06T11:16:45.557Z,100268.47
2022-11-06T11:19:32.625Z,100266.00
2022-11-06T11:22:01.125Z,100263.22
2022-11-06T11:24:28.138Z,100262.03
2022-11-06T11:27:00.026Z,100257.81
2022-11-06T11:29:29.255Z,100247.50
2022-11-06T11:32:05.865Z,100248.19
2022-11-06T11:34:35.864Z,100243.38
2022-11-06T11:37:05.179Z,100227.66
2022-11-06T11:39:36.457Z,100236.56
2022-11-06T11:42:23.200Z,100234.09
2022-11-06T11:45:08.370Z,100224.03
2022-11-06T11:47:39.485Z,100221.72
2022-11-06T11:50:23.797Z,100209.56
2022-11-06T11:53:09.602Z,100206.28
2022-11-06T11:55:40.778Z,100202.03
2022-11-06T11:58:24.732Z,100200.22
2022-11-06T12:00:57.812Z,100191.94
2022-11-06T12:03:28.726Z,100193.31
2022-11-06T12:06:05.763Z,100180.69
2022-11-06T12:08:32.334Z,100178.19
2022-11-06T12:11:06.802Z,100173.38
2022-11-06T12:13:33.303Z,100172.94
2022-11-06T12:16:07.608Z,100165.13
2022-11-06T12:18:37.033Z,100163.09
2022-11-06T12:21:14.039Z,100158.16
2022-11-06T12:24:09.760Z,100158.16
2022-11-06T12:26:41.815Z,100153.31
2022-11-06T12:29:14.902Z,100148.81
2022-11-06T12:32:02.961Z,100137.56
2022-11-06T12:34:48.140Z,100132.16
2022-11-06T12:37:21.452Z,100123.03
2022-11-06T12:39:57.047Z,100127.31
2022-11-06T12:42:29.953Z,100127.34
2022-11-06T12:44:56.383Z,100121.06
2022-11-06T12:47:53.836Z,100105.94
2022-11-06T12:51:01.174Z,100095.69
2022-11-06T12:53:44.013Z,100091.97
2022-11-06T12:56:46.617Z,100089.13
2022-11-06T12:59:28.205Z,100085.00
2022-11-06T13:02:19.367Z,100086.19
2022-11-06T13:05:27.810Z,100083.00
2022-11-06T13:07:59.854Z,100076.91
2022-11-06T13:10:44.562Z,100075.91
2022-11-06T13:13:36.450Z,100074.16
2022-11-06T13:16:14.824Z,100064.88
2022-11-06T13:18:53.090Z,100063.13
2022-11-06T13:21:33.865Z,100062.25
2022-11-06T13:24:12.672Z,100054.38
2022-11-06T13:26:50.796Z,100047.03
2022-11-06T13:29:19.367Z,100041.06
2022-11-06T13:31:55.403Z,100028.44
2022-11-06T13:34:29.414Z,100032.72
2022-11-06T13:36:56.677Z,100035.63
2022-11-06T13:39:39.478Z,100020.75
2022-11-06T13:42:20.596Z,100012.38
2022-11-06T13:44:48.316Z,100004.59
2022-11-06T13:47:27.927Z,100001.69
2022-11-06T13:50:09.397Z,100011.75
2022-11-06T13:52:38.537Z,100002.41
2022-11-06T13:55:16.964Z,100003.19
2022-11-06T13:58:11.638Z,99991.94
2022-11-06T14:00:56.898Z,99986.84
2022-11-06T14:03:41.161Z,99994.28
2022-11-06T14:06:15.549Z,99996.31
2022-11-06T14:08:59.297Z,99992.13
2022-11-06T14:11:29.907Z,99986.69
2022-11-06T14:14:05.660Z,99988.91
2022-11-06T14:16:37.761Z,99966.38
2022-11-06T14:19:11.046Z,99961.22
2022-11-06T14:21:37.339Z,99967.03
2022-11-06T14:24:32.962Z,99977.41
2022-11-06T14:27:00.560Z,99985.47
2022-11-06T14:29:26.863Z,99993.00
2022-11-06T14:32:12.429Z,99986.44
2022-11-06T14:34:40.965Z,99986.25
2022-11-06T14:37:19.213Z,99985.75
2022-11-06T14:39:51.658Z,99986.94
2022-11-06T14:42:41.603Z,99975.72
2022-11-06T14:45:21.405Z,99969.91
2022-11-06T14:47:47.678Z,99978.34
2022-11-06T14:50:19.694Z,99991.13
2022-11-06T14:53:08.296Z,99987.44
2022-11-06T14:55:41.203Z,99990.41
2022-11-06T14:58:18.943Z,100005.22
2022-11-06T15:00:47.966Z,100006.22
2022-11-06T15:03:35.444Z,100000.41
2022-11-06T15:06:25.945Z,99992.75
2022-11-06T15:08:55.957Z,100000.78
2022-11-06T15:11:31.112Z,100005.75
2022-11-06T15:14:03.473Z,99990.22
2022-11-06T15:16:36.736Z,99996.16
2022-11-06T15:19:06.271Z,99992.94
2022-11-06T15:21:40.912Z,99983.88
2022-11-06T15:24:14.467Z,99976.97
2022-11-06T15:26:54.101Z,99968.19
2022-11-06T15:29:25.998Z,99963.28
2022-11-06T15:31:58.986Z,99965.38
2022-11-06T15:34:34.450Z,99973.72
2022-11-06T15:37:11.052Z,99962.00
2022-11-06T15:39:49.290Z,99954.09
2022-11-06T15:42:30.081Z,99939.78
2022-11-06T15:45:27.394Z,99943.84
2022-11-06T15:47:59.359Z,99932.97
2022-11-06T15:50:27.112Z,99933.50
2022-11-06T15:52:54.458Z,99931.81
2022-11-06T15:55:36.463Z,99927.56
2022-11-06T15:58:31.278Z,99920.34
2022-11-06T16:00:59.610Z,99933.66
2022-11-06T16:03:28.938Z,99921.03
2022-11-06T16:05:57.257Z,99918.88
2022-11-06T16:08:26.314Z,99918.81
2022-11-06T16:10:54.363Z,99912.94
2022-11-06T16:13:23.716Z,99915.38
2022-11-06T16:15:59.126Z,99908.56
2022-11-06T16:18:33.399Z,99881.91
2022-11-06T16:21:13.210Z,99871.91
2022-11-06T16:23:44.993Z,99876.13
2022-11-06T16:26:15.344Z,99879.41
2022-11-06T16:28:43.997Z,99893.06
2022-11-06T16:31:17.108Z,99888.25
2022-11-06T16:34:04.588Z,99881.06
2022-11-06T16:36:48.515Z,99884.88
2022-11-06T16:39:17.670Z,99881.09
2022-11-06T16:42:03.658Z,99876.25
2022-11-06T16:44:36.013Z,99886.41
2022-11-06T16:47:05.395Z,99896.81
2022-11-06T16:49:38.642Z,99896.53
2022-11-06T16:52:33.121Z,99905.47
2022-11-06T16:55:06.851Z,99907.56
2022-11-06T16:57:48.894Z,99894.53
2022-11-06T17:00:21.245Z,99897.31
2022-11-06T17:02:52.338Z,99887.97
2022-11-06T17:05:22.319Z,99895.72
2022-11-06T17:08:03.872Z,99885.88
2022-11-06T17:10:39.904Z,99891.19
2022-11-06T17:13:25.127Z,99879.22
2022-11-06T17:15:51.357Z,99883.25
2022-11-06T17:18:22.183Z,99882.06
2022-11-06T17:20:53.221Z,99877.25
2022-11-06T17:23:19.858Z,99887.88
2022-11-06T17:25:47.501Z,99883.75
2022-11-06T17:28:13.831Z,99873.63
2022-11-06T17:30:40.643Z,99884.56
2022-11-06T17:33:07.336Z,99877.97
2022-11-06T17:35:33.786Z,99878.78
2022-11-06T17:38:06.065Z,99882.28
2022-11-06T17:40:33.707Z,99881.47
2022-11-06T17:43:00.013Z,99866.88
2022-11-06T17:45:26.478Z,99867.00
2022-11-06T17:47:52.908Z,99868.09
2022-11-06T17:50:19.362Z,99854.31
2022-11-06T17:52:45.777Z,99852.72
2022-11-06T17:55:12.120Z,99856.53
2022-11-06T17:57:38.476Z,99859.75
2022-11-06T18:00:05.344Z,99864.06
2022-11-06T18:02:59.052Z,99864.88
2022-11-06T18:05:18.280Z,99855.69
2022-11-06T18:07:44.594Z,99865.69
2022-11-06T18:10:10.918Z,99858.69
2022-11-06T18:12:37.278Z,99853.53
2022-11-06T18:15:03.880Z,99840.22
2022-11-06T18:17:30.283Z,99819.97
2022-11-06T18:19:56.643Z,99804.44
2022-11-06T18:22:23.129Z,99794.53
2022-11-06T18:24:49.479Z,99795.53
2022-11-06T18:27:15.914Z,99798.63
2022-11-06T18:29:42.257Z,99804.34
2022-11-06T18:32:08.581Z,99815.16
2022-11-06T18:34:34.937Z,99814.28
2022-11-06T18:37:01.269Z,99796.03
2022-11-06T18:39:27.726Z,99789.91
2022-11-06T18:41:57.657Z,99787.09
2022-11-06T18:44:24.009Z,99789.63
2022-11-06T18:46:50.354Z,99785.50
2022-11-06T18:49:16.708Z,99772.66
2022-11-06T18:51:43.482Z,99757.31
2022-11-06T18:54:11.427Z,99780.84
2022-11-06T18:56:38.157Z,99788.81
2022-11-06T18:59:06.668Z,99771.88
2022-11-06T19:01:33.556Z,99782.09
2022-11-06T19:04:00.032Z,99784.09
2022-11-06T19:06:26.350Z,99755.78
2022-11-06T19:08:52.644Z,99732.75
2022-11-06T19:11:19.208Z,99739.97
2022-11-06T19:13:48.355Z,99744.03
2022-11-06T19:16:15.905Z,99744.81
2022-11-06T19:18:42.301Z,99729.97
2022-11-06T19:21:10.778Z,99741.69
2022-11-06T19:23:40.143Z,99731.47
2022-11-06T19:28:58.362Z,99740.97
2022-11-06T19:31:25.026Z,99746.59
2022-11-06T19:33:51.349Z,99745.56
2022-11-06T19:36:17.653Z,99743.78
2022-11-06T19:38:43.971Z,99737.16
2022-11-06T19:41:10.270Z,99734.94
2022-11-06T19:43:37.918Z,99743.38
2022-11-06T19:46:05.420Z,99758.09
2022-11-06T19:48:32.713Z,99749.38
2022-11-06T19:51:00.241Z,99752.59
2022-11-06T19:53:27.481Z,99746.78
2022-11-06T19:55:53.800Z,99749.19
2022-11-06T19:58:21.039Z,99753.88
2022-11-06T20:00:47.347Z,99744.16
2022-11-06T20:03:14.431Z,99736.56
2022-11-06T20:05:41.495Z,99745.88
2022-11-06T20:08:08.673Z,99748.97
2022-11-06T20:10:35.019Z,99753.72
2022-11-06T20:13:02.447Z,99766.47
2022-11-06T20:15:29.526Z,99767.06
2022-11-06T20:17:56.113Z,99754.81
2022-11-06T20:20:22.663Z,99750.84
2022-11-06T20:22:49.091Z,99755.66
2022-11-06T20:25:15.561Z,99769.66
2022-11-06T20:27:41.933Z,99778.28
2022-11-06T20:30:09.084Z,99765.97
2022-11-06T20:32:35.549Z,99766.56
2022-11-06T20:35:03.345Z,99770.25
2022-11-06T20:37:29.702Z,99764.47
2022-11-06T20:39:56.115Z,99771.66
2022-11-06T20:42:22.710Z,99771.84
2022-11-06T20:44:49.170Z,99775.88
2022-11-06T20:47:16.162Z,99772.47
2022-11-06T20:49:42.555Z,99768.88
2022-11-06T20:52:14.080Z,99769.25
2022-11-06T20:54:46.950Z,99773.84
2022-11-06T20:57:15.647Z,99781.69
2022-11-06T20:59:42.682Z,99775.66
2022-11-06T21:02:11.550Z,99780.25
2022-11-06T21:04:38.047Z,99788.88
2022-11-06T21:07:04.416Z,99785.06
2022-11-06T21:09:30.729Z,99780.06
2022-11-06T21:11:57.084Z,99772.63
2022-11-06T21:14:23.392Z,99770.44
2022-11-06T21:16:49.745Z,99770.72
2022-11-06T21:19:16.076Z,99780.16
2022-11-06T21:21:42.426Z,99773.31
2022-11-06T21:24:08.811Z,99788.97
2022-11-06T21:26:37.580Z,99793.34
2022-11-06T21:29:06.702Z,99793.78
2022-11-06T21:31:33.486Z,99791.75
2022-11-06T21:34:02.103Z,99795.16
2022-11-06T21:36:31.494Z,99794.88
2022-11-06T21:39:00.698Z,99790.03
2022-11-06T21:41:28.857Z,99793.44
2022-11-06T21:43:56.081Z,99792.63
2022-11-06T21:46:22.434Z,99781.09
2022-11-06T21:48:49.459Z,99789.19
2022-11-06T21:51:22.520Z,99787.00
2022-11-06T21:53:49.737Z,99787.97
2022-11-06T21:56:19.990Z,99797.13
2022-11-06T21:58:51.352Z,99786.75
2022-11-06T22:01:18.928Z,99797.47
2022-11-06T22:03:45.508Z,99798.88
2022-11-06T22:06:17.312Z,99794.53
2022-11-06T22:08:45.129Z,99790.94
2022-11-06T22:11:11.404Z,99801.41
2022-11-06T22:13:37.760Z,99797.94
2022-11-06T22:16:04.473Z,99807.78
2022-11-06T22:18:30.827Z,99800.16
2022-11-06T22:21:13.326Z,99797.72
2022-11-06T22:23:40.113Z,99803.16
2022-11-06T22:26:11.031Z,99802.69
2022-11-06T22:28:37.576Z,99804.38
2022-11-06T22:31:04.800Z,99808.22
2022-11-06T22:33:32.310Z,99810.81
2022-11-06T22:36:08.733Z,99816.34
2022-11-06T22:38:35.720Z,99804.78
2022-11-06T22:41:03.941Z,99802.16
2022-11-06T22:43:31.893Z,99808.78
2022-11-06T22:45:59.663Z,99807.94
2022-11-06T22:48:27.906Z,99808.97
2022-11-06T22:50:54.491Z,99810.94
2022-11-06T22:53:21.423Z,99810.09
2022-11-06T22:55:48.220Z,99809.94
2022-11-06T22:58:14.594Z,99802.13
2022-11-06T23:00:40.968Z,99805.00
2022-11-06T23:03:07.414Z,99804.22
2022-11-06T23:05:38.610Z,99804.44
2022-11-06T23:08:05.278Z,99817.16
2022-11-06T23:10:31.723Z,99822.75
2022-11-06T23:12:58.455Z,99818.63
2022-11-06T23:15:25.192Z,99816.22
2022-11-06T23:17:52.561Z,99823.88
2022-11-06T23:20:20.229Z,99828.41
2022-11-06T23:22:47.230Z,99832.25
2022-11-06T23:25:14.480Z,99833.78
2022-11-06T23:27:47.025Z,99833.78
2022-11-06T23:30:15.892Z,99834.97
2022-11-06T23:32:42.285Z,99834.69
2022-11-06T23:35:13.519Z,99830.91
2022-11-06T23:37:41.607Z,99834.53
2022-11-06T23:40:10.308Z,99834.53
2022-11-06T23:42:37.005Z,99834.00
2022-11-06T23:45:04.873Z,99840.75
2022-11-06T23:47:31.464Z,99832.59
2022-11-06T23:49:58.374Z,99834.47
2022-11-06T23:52:24.857Z,99827.22
2022-11-06T23:54:51.283Z,99829.28
2022-11-06T23:57:17.657Z,99833.97
2022-11-06T23:59:43.981Z,99835.88
